AirNav   ProFlight Series 2 Aviation Headset
 
 846 users online  

67CA Chapman Farms Airport
Chowchilla, California, USA

GOING TO CHOWCHILLA?


FAA INFORMATION EFFECTIVE 18 JUNE 2020

Location

FAA Identifier: 67CA
Lat/Long: 37-04-21.8010N 120-22-41.6400W
37-04.363350N 120-22.694000W
37.0727225,-120.3782333
(estimated)
Elevation: 175 ft. / 53 m (estimated)
Variation: 15E (1985)
From city: 6 miles SW of CHOWCHILLA, CA
Time zone: UTC -7 (UTC -8 during Standard Time)
Zip code: 93610

Airport Operations

Airport use: Private use. Permission required prior to landing
Activation date: 01/1976
Control tower: no
ARTCC: OAKLAND CENTER
FSS: RANCHO MURIETA FLIGHT SERVICE STATION
Attendance: UNATNDD
Wind indicator: yes
Segmented circle: no

Airport Communications

WX ASOS at MAE (14 nm E): 134.725 (559-674-1781)
WX ASOS at MCE (14 nm NW): 132.175 (209-381-0926)

Nearby radio navigation aids

VOR radial/distance  VOR name  Freq  Var
HYPr158/8.9EL NIDO VOR/DME114.2015E
PXNr026/28.8PANOCHE VORTAC112.6016E
FRAr250/37.5FRIANT VORTAC115.6017E

Airport Services

Runway Information

Runway 9/27

Dimensions: 3000 x 20 ft. / 914 x 6 m
Surface: asphalt
RUNWAY 9  RUNWAY 27
Traffic pattern: leftleft
Obstructions: 20 ft. pline, 700 ft. from runwaynone

Airport Ownership and Management from official FAA records

Ownership: Privately-owned
Owner: GARY CHAPMAN
22449 ROAD 9
CHOWCHILLA, CA 93610
Phone 559-871-5001

Additional Remarks

FOR CD CTC NORCAL APCH AT 916-361-0516.

Instrument Procedures

There are no published instrument procedures at 67CA.

Some nearby airports with instrument procedures:

F34 - Firebaugh Airport (13 nm S)
KMAE - Madera Municipal Airport (14 nm E)
KMCE - Merced Regional Airport/Macready Field (14 nm NW)
KMER - Castle Airport (21 nm NW)
KLSN - Los Banos Municipal Airport (24 nm W)
 
Loc | Ops | Rwys | IFR | FBO | Links
Com | Nav | Svcs | Stats | Notes
Area around 67CA (Chapman Farms Airport)
 
Road maps at: MapQuest Bing Google
 
Aerial photo
No photo
 
Sectional chart

 
Airport distance calculator
Flying to Chapman Farms Airport? Find the distance to fly.

From to 67CA

Sunrise and sunset
Times for 12-Jul-2020
 Local
(UTC-7)
 Zulu
(UTC)
Morning civil twilight05:2312:23
Sunrise05:5312:53
Sunset20:2103:21
Evening civil twilight20:5103:51

Current date and time
Zulu (UTC)  13-Jul-2020 02:20:54
Local (UTC-7)  12-Jul-2020 19:20:54
 
METAR
KMAE 
14nm SE 
130153Z AUTO 30007KT 10SM FEW110 38/13 A2976 RMK AO2 SLP074 T03780128
KMCE 
14nm NW 
130153Z AUTO 33008KT 10SM CLR 38/08 A2975 RMK AO2 SLP071 T03830078
KMER 
21nm NW 
130145Z 34010KT 10SM CLR 39/07 A2975
TAF
KMCE 
14nm NW 
121726Z 1218/1318 32006KT P6SM SKC
NOTAMs
Click for the latest NOTAMs
NOTAMs are issued by the DoD/FAA and will open in a separate window not controlled by AirNav.

 

 
 

Would you like to see your business listed on this page?

 If your business provides an interesting product or service to pilots, flight crews, aircraft, or users of the Chapman Farms Airport, you should consider listing it here.  To start the listing process, click on the button below
 
Add a business
 

Other Pages about Chapman Farms Airport

Update a link
 
Copyright © AirNav, LLC. All rights reserved. Privacy Policy  Contact